sensor_id;sensor_type;location;lat;lon;timestamp;temperature;humidity
47845;DHT22;33605;48.822;8.796;2022-10-31T00:00:57;15.50;54.70
47845;DHT22;33605;48.822;8.796;2022-10-31T00:03:23;15.50;55.40
47845;DHT22;33605;48.822;8.796;2022-10-31T00:05:49;15.50;54.80
47845;DHT22;33605;48.822;8.796;2022-10-31T00:08:16;15.50;54.80
47845;DHT22;33605;48.822;8.796;2022-10-31T00:10:42;15.40;54.80
47845;DHT22;33605;48.822;8.796;2022-10-31T00:13:09;15.40;54.90
47845;DHT22;33605;48.822;8.796;2022-10-31T00:15:36;15.40;55.00
47845;DHT22;33605;48.822;8.796;2022-10-31T00:18:03;15.30;55.00
47845;DHT22;33605;48.822;8.796;2022-10-31T00:20:29;15.40;55.60
47845;DHT22;33605;48.822;8.796;2022-10-31T00:22:59;15.30;54.90
47845;DHT22;33605;48.822;8.796;2022-10-31T00:25:25;15.30;55.00
47845;DHT22;33605;48.822;8.796;2022-10-31T00:27:51;15.30;54.90
47845;DHT22;33605;48.822;8.796;2022-10-31T00:30:17;15.30;54.90
47845;DHT22;33605;48.822;8.796;2022-10-31T00:32:42;15.30;54.90
47845;DHT22;33605;48.822;8.796;2022-10-31T00:35:08;15.20;54.50
47845;DHT22;33605;48.822;8.796;2022-10-31T00:37:34;15.20;54.30
47845;DHT22;33605;48.822;8.796;2022-10-31T00:39:59;15.20;54.20
47845;DHT22;33605;48.822;8.796;2022-10-31T00:42:25;15.10;54.20
47845;DHT22;33605;48.822;8.796;2022-10-31T00:44:50;15.10;54.40
47845;DHT22;33605;48.822;8.796;2022-10-31T00:47:16;15.10;54.80
47845;DHT22;33605;48.822;8.796;2022-10-31T00:49:42;15.10;54.70
47845;DHT22;33605;48.822;8.796;2022-10-31T00:52:07;15.00;54.70
47845;DHT22;33605;48.822;8.796;2022-10-31T00:54:33;15.00;54.90
47845;DHT22;33605;48.822;8.796;2022-10-31T00:56:59;15.00;55.00
47845;DHT22;33605;48.822;8.796;2022-10-31T00:59:24;15.00;55.00
47845;DHT22;33605;48.822;8.796;2022-10-31T01:01:50;14.90;55.00
47845;DHT22;33605;48.822;8.796;2022-10-31T01:04:15;14.90;55.00
47845;DHT22;33605;48.822;8.796;2022-10-31T01:06:41;14.90;55.00
47845;DHT22;33605;48.822;8.796;2022-10-31T01:09:06;14.80;54.80
47845;DHT22;33605;48.822;8.796;2022-10-31T01:11:32;14.80;54.70
47845;DHT22;33605;48.822;8.796;2022-10-31T01:13:58;14.80;54.80
47845;DHT22;33605;48.822;8.796;2022-10-31T01:16:25;14.80;54.90
47845;DHT22;33605;48.822;8.796;2022-10-31T01:18:51;14.80;54.90
47845;DHT22;33605;48.822;8.796;2022-10-31T01:21:22;14.80;54.80
47845;DHT22;33605;48.822;8.796;2022-10-31T01:23:49;14.80;55.50
47845;DHT22;33605;48.822;8.796;2022-10-31T01:26:21;14.70;54.70
47845;DHT22;33605;48.822;8.796;2022-10-31T01:29:01;14.70;54.60
47845;DHT22;33605;48.822;8.796;2022-10-31T01:31:33;14.70;54.80
47845;DHT22;33605;48.822;8.796;2022-10-31T01:33:59;14.70;54.70
47845;DHT22;33605;48.822;8.796;2022-10-31T01:38:55;14.70;54.70
47845;DHT22;33605;48.822;8.796;2022-10-31T01:41:24;14.70;54.70
47845;DHT22;33605;48.822;8.796;2022-10-31T01:43:55;14.60;55.10
47845;DHT22;33605;48.822;8.796;2022-10-31T01:46:33;14.60;54.70
47845;DHT22;33605;48.822;8.796;2022-10-31T01:49:02;14.60;54.70
47845;DHT22;33605;48.822;8.796;2022-10-31T01:51:34;14.60;54.70
47845;DHT22;33605;48.822;8.796;2022-10-31T01:54:04;14.50;54.60
47845;DHT22;33605;48.822;8.796;2022-10-31T01:56:32;14.50;54.60
47845;DHT22;33605;48.822;8.796;2022-10-31T01:59:00;14.50;54.60
47845;DHT22;33605;48.822;8.796;2022-10-31T02:01:27;14.50;54.60
47845;DHT22;33605;48.822;8.796;2022-10-31T02:03:55;14.40;54.40
47845;DHT22;33605;48.822;8.796;2022-10-31T02:06:37;14.40;54.40
47845;DHT22;33605;48.822;8.796;2022-10-31T02:09:05;14.40;54.30
47845;DHT22;33605;48.822;8.796;2022-10-31T02:11:31;14.40;54.30
47845;DHT22;33605;48.822;8.796;2022-10-31T02:13:59;14.40;54.30
47845;DHT22;33605;48.822;8.796;2022-10-31T02:16:26;14.30;54.30
47845;DHT22;33605;48.822;8.796;2022-10-31T02:18:52;14.30;54.10
47845;DHT22;33605;48.822;8.796;2022-10-31T02:29:54;14.30;54.60
47845;DHT22;33605;48.822;8.796;2022-10-31T02:32:27;14.30;54.70
47845;DHT22;33605;48.822;8.796;2022-10-31T02:40:44;14.20;54.50
47845;DHT22;33605;48.822;8.796;2022-10-31T02:43:21;14.20;54.20
47845;DHT22;33605;48.822;8.796;2022-10-31T02:48:55;14.10;54.20
47845;DHT22;33605;48.822;8.796;2022-10-31T02:51:23;14.10;54.30
47845;DHT22;33605;48.822;8.796;2022-10-31T02:53:49;14.00;54.50
47845;DHT22;33605;48.822;8.796;2022-10-31T02:56:17;14.00;54.70
47845;DHT22;33605;48.822;8.796;2022-10-31T02:58:56;14.00;54.90
47845;DHT22;33605;48.822;8.796;2022-10-31T03:11:53;13.90;55.30
47845;DHT22;33605;48.822;8.796;2022-10-31T03:14:26;13.90;55.40
47845;DHT22;33605;48.822;8.796;2022-10-31T03:16:57;13.90;55.40
47845;DHT22;33605;48.822;8.796;2022-10-31T03:19:36;13.90;55.40
47845;DHT22;33605;48.822;8.796;2022-10-31T03:22:14;13.90;55.40
47845;DHT22;33605;48.822;8.796;2022-10-31T03:24:41;13.90;55.30
47845;DHT22;33605;48.822;8.796;2022-10-31T03:27:10;13.90;55.30
47845;DHT22;33605;48.822;8.796;2022-10-31T03:29:40;13.80;55.20
47845;DHT22;33605;48.822;8.796;2022-10-31T03:32:15;13.80;55.20
47845;DHT22;33605;48.822;8.796;2022-10-31T03:34:43;13.80;55.10
47845;DHT22;33605;48.822;8.796;2022-10-31T03:37:13;13.80;55.00
47845;DHT22;33605;48.822;8.796;2022-10-31T03:39:41;13.80;55.10
47845;DHT22;33605;48.822;8.796;2022-10-31T03:42:17;13.80;55.10
47845;DHT22;33605;48.822;8.796;2022-10-31T03:44:49;13.80;55.80
47845;DHT22;33605;48.822;8.796;2022-10-31T03:47:16;13.80;55.10
47845;DHT22;33605;48.822;8.796;2022-10-31T03:49:42;13.80;55.00
47845;DHT22;33605;48.822;8.796;2022-10-31T03:52:31;13.70;54.90
47845;DHT22;33605;48.822;8.796;2022-10-31T03:55:06;13.80;55.00
47845;DHT22;33605;48.822;8.796;2022-10-31T03:58:03;13.80;54.90
47845;DHT22;33605;48.822;8.796;2022-10-31T04:00:32;13.70;55.00
47845;DHT22;33605;48.822;8.796;2022-10-31T04:05:35;13.70;55.00
47845;DHT22;33605;48.822;8.796;2022-10-31T04:08:05;13.70;55.10
47845;DHT22;33605;48.822;8.796;2022-10-31T04:10:31;13.70;55.20
47845;DHT22;33605;48.822;8.796;2022-10-31T04:13:01;13.60;55.10
47845;DHT22;33605;48.822;8.796;2022-10-31T04:15:28;13.60;55.20
47845;DHT22;33605;48.822;8.796;2022-10-31T04:17:56;13.60;55.20
47845;DHT22;33605;48.822;8.796;2022-10-31T04:20:38;13.60;55.60
47845;DHT22;33605;48.822;8.796;2022-10-31T04:23:04;13.60;56.10
47845;DHT22;33605;48.822;8.796;2022-10-31T04:25:30;13.60;55.40
47845;DHT22;33605;48.822;8.796;2022-10-31T04:27:56;13.60;55.40
47845;DHT22;33605;48.822;8.796;2022-10-31T04:30:21;13.60;55.50
47845;DHT22;33605;48.822;8.796;2022-10-31T04:32:47;13.60;55.50
47845;DHT22;33605;48.822;8.796;2022-10-31T04:35:13;13.60;55.50
47845;DHT22;33605;48.822;8.796;2022-10-31T04:37:38;13.50;55.50
47845;DHT22;33605;48.822;8.796;2022-10-31T04:40:05;13.60;55.60
47845;DHT22;33605;48.822;8.796;2022-10-31T04:42:31;13.50;55.50
47845;DHT22;33605;48.822;8.796;2022-10-31T04:44:56;13.50;55.60
47845;DHT22;33605;48.822;8.796;2022-10-31T04:47:22;13.50;55.60
47845;DHT22;33605;48.822;8.796;2022-10-31T04:49:48;13.50;55.60
47845;DHT22;33605;48.822;8.796;2022-10-31T04:52:13;13.50;55.60
47845;DHT22;33605;48.822;8.796;2022-10-31T04:54:39;13.50;55.60
47845;DHT22;33605;48.822;8.796;2022-10-31T04:57:05;13.50;55.70
47845;DHT22;33605;48.822;8.796;2022-10-31T04:59:31;13.50;55.70
47845;DHT22;33605;48.822;8.796;2022-10-31T05:01:56;13.50;55.80
47845;DHT22;33605;48.822;8.796;2022-10-31T05:04:22;13.50;55.90
47845;DHT22;33605;48.822;8.796;2022-10-31T05:06:48;13.40;55.80
47845;DHT22;33605;48.822;8.796;2022-10-31T05:09:13;13.40;55.70
47845;DHT22;33605;48.822;8.796;2022-10-31T05:11:39;13.40;55.70
47845;DHT22;33605;48.822;8.796;2022-10-31T05:14:04;13.40;55.80
47845;DHT22;33605;48.822;8.796;2022-10-31T05:16:30;13.40;55.80
47845;DHT22;33605;48.822;8.796;2022-10-31T05:18:55;13.40;55.70
47845;DHT22;33605;48.822;8.796;2022-10-31T05:21:21;13.40;55.80
47845;DHT22;33605;48.822;8.796;2022-10-31T05:23:47;13.40;55.80
47845;DHT22;33605;48.822;8.796;2022-10-31T05:26:12;13.40;55.80
47845;DHT22;33605;48.822;8.796;2022-10-31T05:28:38;13.40;55.70
47845;DHT22;33605;48.822;8.796;2022-10-31T05:31:04;13.30;55.50
47845;DHT22;33605;48.822;8.796;2022-10-31T05:33:29;13.30;55.40
47845;DHT22;33605;48.822;8.796;2022-10-31T05:35:55;13.30;55.30
47845;DHT22;33605;48.822;8.796;2022-10-31T05:38:20;13.30;55.40
47845;DHT22;33605;48.822;8.796;2022-10-31T05:40:46;13.30;55.40
47845;DHT22;33605;48.822;8.796;2022-10-31T05:43:11;13.30;55.50
47845;DHT22;33605;48.822;8.796;2022-10-31T05:45:37;13.30;55.50
47845;DHT22;33605;48.822;8.796;2022-10-31T05:48:03;13.30;55.40
47845;DHT22;33605;48.822;8.796;2022-10-31T05:50:30;13.30;55.30
47845;DHT22;33605;48.822;8.796;2022-10-31T05:53:01;13.20;55.20
47845;DHT22;33605;48.822;8.796;2022-10-31T05:55:27;13.20;55.10
47845;DHT22;33605;48.822;8.796;2022-10-31T05:57:54;13.10;54.90
47845;DHT22;33605;48.822;8.796;2022-10-31T06:00:20;13.10;55.10
47845;DHT22;33605;48.822;8.796;2022-10-31T06:02:46;13.10;54.80
47845;DHT22;33605;48.822;8.796;2022-10-31T06:05:12;13.10;54.90
47845;DHT22;33605;48.822;8.796;2022-10-31T06:07:38;13.10;55.00
47845;DHT22;33605;48.822;8.796;2022-10-31T06:10:06;13.00;55.00
47845;DHT22;33605;48.822;8.796;2022-10-31T06:12:33;13.00;55.10
47845;DHT22;33605;48.822;8.796;2022-10-31T06:15:06;13.00;55.20
47845;DHT22;33605;48.822;8.796;2022-10-31T06:17:35;13.00;55.20
47845;DHT22;33605;48.822;8.796;2022-10-31T06:20:01;13.00;55.30
47845;DHT22;33605;48.822;8.796;2022-10-31T06:22:27;13.00;55.40
47845;DHT22;33605;48.822;8.796;2022-10-31T06:24:53;13.00;55.50
47845;DHT22;33605;48.822;8.796;2022-10-31T06:27:19;13.00;55.50
47845;DHT22;33605;48.822;8.796;2022-10-31T06:29:44;13.00;55.40
47845;DHT22;33605;48.822;8.796;2022-10-31T06:32:13;13.00;55.50
47845;DHT22;33605;48.822;8.796;2022-10-31T06:34:40;13.00;55.50
47845;DHT22;33605;48.822;8.796;2022-10-31T06:37:06;13.00;55.50
47845;DHT22;33605;48.822;8.796;2022-10-31T06:39:32;13.00;55.40
47845;DHT22;33605;48.822;8.796;2022-10-31T06:41:58;13.00;55.40
47845;DHT22;33605;48.822;8.796;2022-10-31T06:44:23;13.00;55.40
47845;DHT22;33605;48.822;8.796;2022-10-31T06:46:49;13.00;55.50
47845;DHT22;33605;48.822;8.796;2022-10-31T06:49:15;13.10;55.60
47845;DHT22;33605;48.822;8.796;2022-10-31T06:51:40;13.10;55.60
47845;DHT22;33605;48.822;8.796;2022-10-31T06:54:06;13.10;55.70
47845;DHT22;33605;48.822;8.796;2022-10-31T06:56:31;13.10;55.70
47845;DHT22;33605;48.822;8.796;2022-10-31T06:58:57;13.10;55.70
47845;DHT22;33605;48.822;8.796;2022-10-31T07:01:22;13.20;55.90
47845;DHT22;33605;48.822;8.796;2022-10-31T07:03:48;13.20;56.00
47845;DHT22;33605;48.822;8.796;2022-10-31T07:06:14;13.20;56.10
47845;DHT22;33605;48.822;8.796;2022-10-31T07:08:39;13.30;56.20
47845;DHT22;33605;48.822;8.796;2022-10-31T07:11:05;13.30;56.30
47845;DHT22;33605;48.822;8.796;2022-10-31T07:13:31;13.40;56.40
47845;DHT22;33605;48.822;8.796;2022-10-31T07:16:01;13.40;56.30
47845;DHT22;33605;48.822;8.796;2022-10-31T07:18:27;13.40;56.30
47845;DHT22;33605;48.822;8.796;2022-10-31T07:20:53;13.50;56.40
47845;DHT22;33605;48.822;8.796;2022-10-31T07:23:19;13.50;56.50
47845;DHT22;33605;48.822;8.796;2022-10-31T07:25:44;13.50;56.60
47845;DHT22;33605;48.822;8.796;2022-10-31T07:28:10;13.60;57.30
47845;DHT22;33605;48.822;8.796;2022-10-31T07:30:37;13.60;56.70
47845;DHT22;33605;48.822;8.796;2022-10-31T07:33:03;13.60;56.70
47845;DHT22;33605;48.822;8.796;2022-10-31T07:35:30;13.70;56.80
47845;DHT22;33605;48.822;8.796;2022-10-31T07:37:56;13.70;56.80
47845;DHT22;33605;48.822;8.796;2022-10-31T07:40:23;13.80;56.90
47845;DHT22;33605;48.822;8.796;2022-10-31T07:42:51;13.80;56.90
47845;DHT22;33605;48.822;8.796;2022-10-31T07:45:19;13.90;57.20
47845;DHT22;33605;48.822;8.796;2022-10-31T07:47:52;14.00;57.30
47845;DHT22;33605;48.822;8.796;2022-10-31T07:50:29;14.00;57.20
47845;DHT22;33605;48.822;8.796;2022-10-31T07:53:09;14.10;57.30
47845;DHT22;33605;48.822;8.796;2022-10-31T07:55:35;14.20;57.30
47845;DHT22;33605;48.822;8.796;2022-10-31T07:58:13;14.30;57.20
47845;DHT22;33605;48.822;8.796;2022-10-31T08:00:41;14.40;57.30
47845;DHT22;33605;48.822;8.796;2022-10-31T08:03:09;14.50;57.40
47845;DHT22;33605;48.822;8.796;2022-10-31T08:05:36;14.50;57.40
47845;DHT22;33605;48.822;8.796;2022-10-31T08:08:03;14.60;57.40
47845;DHT22;33605;48.822;8.796;2022-10-31T08:10:29;14.70;57.40
47845;DHT22;33605;48.822;8.796;2022-10-31T22:06:24;14.80;57.40
47845;DHT22;33605;48.822;8.796;2022-10-31T22:08:52;16.70;60.90
47845;DHT22;33605;48.822;8.796;2022-10-31T22:11:18;16.50;60.90
47845;DHT22;33605;48.822;8.796;2022-10-31T22:13:45;16.40;60.90
47845;DHT22;33605;48.822;8.796;2022-10-31T22:16:14;16.40;60.90
47845;DHT22;33605;48.822;8.796;2022-10-31T22:18:41;16.30;60.70
47845;DHT22;33605;48.822;8.796;2022-10-31T22:21:18;16.30;60.70
47845;DHT22;33605;48.822;8.796;2022-10-31T22:23:49;16.30;61.00
47845;DHT22;33605;48.822;8.796;2022-10-31T22:26:16;16.20;60.90
47845;DHT22;33605;48.822;8.796;2022-10-31T22:28:43;16.20;60.90
47845;DHT22;33605;48.822;8.796;2022-10-31T22:31:16;16.20;60.90
47845;DHT22;33605;48.822;8.796;2022-10-31T22:33:42;16.20;61.00
47845;DHT22;33605;48.822;8.796;2022-10-31T22:36:10;16.20;61.00
47845;DHT22;33605;48.822;8.796;2022-10-31T22:38:37;16.10;61.10
47845;DHT22;33605;48.822;8.796;2022-10-31T22:41:11;16.10;61.10
47845;DHT22;33605;48.822;8.796;2022-10-31T22:43:37;16.10;61.10
47845;DHT22;33605;48.822;8.796;2022-10-31T22:46:04;16.10;61.10
47845;DHT22;33605;48.822;8.796;2022-10-31T22:48:34;16.10;61.20
47845;DHT22;33605;48.822;8.796;2022-10-31T22:51:08;16.10;61.10
47845;DHT22;33605;48.822;8.796;2022-10-31T22:53:35;16.10;61.10
47845;DHT22;33605;48.822;8.796;2022-10-31T22:56:02;16.10;61.10
47845;DHT22;33605;48.822;8.796;2022-10-31T22:58:28;16.10;61.10
47845;DHT22;33605;48.822;8.796;2022-10-31T23:00:54;16.10;61.10
47845;DHT22;33605;48.822;8.796;2022-10-31T23:03:20;16.00;60.90
47845;DHT22;33605;48.822;8.796;2022-10-31T23:08:21;16.00;61.20
47845;DHT22;33605;48.822;8.796;2022-10-31T23:10:46;16.10;61.20
47845;DHT22;33605;48.822;8.796;2022-10-31T23:13:12;16.00;61.30
47845;DHT22;33605;48.822;8.796;2022-10-31T23:15:56;16.10;61.50
47845;DHT22;33605;48.822;8.796;2022-10-31T23:18:22;16.10;61.50
47845;DHT22;33605;48.822;8.796;2022-10-31T23:20:51;16.00;61.40
47845;DHT22;33605;48.822;8.796;2022-10-31T23:23:17;16.00;61.40
47845;DHT22;33605;48.822;8.796;2022-10-31T23:25:44;16.10;61.40
47845;DHT22;33605;48.822;8.796;2022-10-31T23:28:27;16.10;61.30
47845;DHT22;33605;48.822;8.796;2022-10-31T23:30:53;16.00;61.30
47845;DHT22;33605;48.822;8.796;2022-10-31T23:33:19;16.00;61.40
47845;DHT22;33605;48.822;8.796;2022-10-31T23:35:44;16.00;61.40
47845;DHT22;33605;48.822;8.796;2022-10-31T23:38:10;16.00;61.40
47845;DHT22;33605;48.822;8.796;2022-10-31T23:40:35;16.00;61.40
47845;DHT22;33605;48.822;8.796;2022-10-31T23:43:03;16.00;61.30
47845;DHT22;33605;48.822;8.796;2022-10-31T23:45:29;16.00;61.30
47845;DHT22;33605;48.822;8.796;2022-10-31T23:47:54;16.00;61.30
47845;DHT22;33605;48.822;8.796;2022-10-31T23:50:21;16.00;61.30
47845;DHT22;33605;48.822;8.796;2022-10-31T23:52:46;15.90;61.30
47845;DHT22;33605;48.822;8.796;2022-10-31T23:55:12;15.90;61.30
47845;DHT22;33605;48.822;8.796;2022-10-31T23:57:37;15.90;61.30
